sensor_id;sensor_type;location;lat;lon;timestamp;pressure;altitude;pressure_sealevel;temperature;humidity
24045;BME280;26257;49.442;8.422;2023-01-31T00:01:36;101442.66;;;6.49;100.00
24045;BME280;26257;49.442;8.422;2023-01-31T00:04:04;101440.63;;;6.63;100.00
24045;BME280;26257;49.442;8.422;2023-01-31T00:06:33;101444.59;;;6.53;100.00
24045;BME280;26257;49.442;8.422;2023-01-31T00:09:00;101443.06;;;6.58;100.00
24045;BME280;26257;49.442;8.422;2023-01-31T00:11:27;101447.22;;;6.53;100.00
24045;BME280;26257;49.442;8.422;2023-01-31T00:13:54;101448.00;;;6.71;100.00
24045;BME280;26257;49.442;8.422;2023-01-31T00:16:21;101446.50;;;6.57;100.00
24045;BME280;26257;49.442;8.422;2023-01-31T00:18:46;101451.75;;;6.57;100.00
24045;BME280;26257;49.442;8.422;2023-01-31T00:21:16;101447.59;;;6.62;100.00
24045;BME280;26257;49.442;8.422;2023-01-31T00:23:44;101455.28;;;6.78;100.00
24045;BME280;26257;49.442;8.422;2023-01-31T00:26:17;101453.44;;;6.55;100.00
24045;BME280;26257;49.442;8.422;2023-01-31T00:28:44;101451.84;;;6.59;100.00
24045;BME280;26257;49.442;8.422;2023-01-31T00:31:11;101452.22;;;6.68;100.00
24045;BME280;26257;49.442;8.422;2023-01-31T00:33:39;101457.59;;;6.50;100.00
24045;BME280;26257;49.442;8.422;2023-01-31T00:36:07;101449.06;;;6.76;100.00
24045;BME280;26257;49.442;8.422;2023-01-31T00:38:37;101448.94;;;6.73;100.00
24045;BME280;26257;49.442;8.422;2023-01-31T00:41:04;101448.09;;;6.95;100.00
24045;BME280;26257;49.442;8.422;2023-01-31T00:43:30;101457.34;;;6.86;100.00
24045;BME280;26257;49.442;8.422;2023-01-31T00:45:57;101451.09;;;6.83;100.00
24045;BME280;26257;49.442;8.422;2023-01-31T00:48:23;101449.44;;;6.65;100.00
24045;BME280;26257;49.442;8.422;2023-01-31T00:50:49;101442.28;;;6.81;100.00
24045;BME280;26257;49.442;8.422;2023-01-31T00:53:14;101436.09;;;7.02;100.00
24045;BME280;26257;49.442;8.422;2023-01-31T00:55:41;101436.66;;;6.72;100.00
24045;BME280;26257;49.442;8.422;2023-01-31T00:58:07;101441.63;;;6.87;100.00
24045;BME280;26257;49.442;8.422;2023-01-31T01:00:33;101437.03;;;6.81;100.00
24045;BME280;26257;49.442;8.422;2023-01-31T01:02:58;101444.88;;;6.59;100.00
24045;BME280;26257;49.442;8.422;2023-01-31T01:05:23;101434.47;;;6.62;100.00
24045;BME280;26257;49.442;8.422;2023-01-31T01:07:49;101439.03;;;6.66;100.00
24045;BME280;26257;49.442;8.422;2023-01-31T01:10:14;101438.19;;;6.67;100.00
24045;BME280;26257;49.442;8.422;2023-01-31T01:12:40;101438.06;;;6.64;100.00
24045;BME280;26257;49.442;8.422;2023-01-31T01:15:06;101442.75;;;6.51;100.00
24045;BME280;26257;49.442;8.422;2023-01-31T01:17:31;101437.03;;;6.61;100.00
24045;BME280;26257;49.442;8.422;2023-01-31T01:19:57;101441.06;;;6.73;100.00
24045;BME280;26257;49.442;8.422;2023-01-31T01:22:27;101436.41;;;6.66;100.00
24045;BME280;26257;49.442;8.422;2023-01-31T01:24:53;101442.28;;;6.61;100.00
24045;BME280;26257;49.442;8.422;2023-01-31T01:27:18;101439.72;;;6.62;100.00
24045;BME280;26257;49.442;8.422;2023-01-31T01:29:44;101441.16;;;6.75;100.00
24045;BME280;26257;49.442;8.422;2023-01-31T01:32:09;101438.84;;;6.62;100.00
24045;BME280;26257;49.442;8.422;2023-01-31T01:34:35;101447.41;;;6.58;100.00
24045;BME280;26257;49.442;8.422;2023-01-31T01:37:02;101447.38;;;6.56;100.00
24045;BME280;26257;49.442;8.422;2023-01-31T01:39:34;101447.28;;;6.55;100.00
24045;BME280;26257;49.442;8.422;2023-01-31T01:42:00;101430.22;;;6.44;100.00
24045;BME280;26257;49.442;8.422;2023-01-31T01:44:45;101449.44;;;6.23;100.00
24045;BME280;26257;49.442;8.422;2023-01-31T01:50:26;101443.56;;;6.29;100.00
24045;BME280;26257;49.442;8.422;2023-01-31T01:58:05;101455.75;;;6.48;100.00
24045;BME280;26257;49.442;8.422;2023-01-31T02:00:32;101454.63;;;6.22;100.00
24045;BME280;26257;49.442;8.422;2023-01-31T02:03:01;101459.06;;;6.23;100.00
24045;BME280;26257;49.442;8.422;2023-01-31T02:05:32;101473.47;;;6.33;100.00
24045;BME280;26257;49.442;8.422;2023-01-31T02:07:59;101461.03;;;6.29;100.00
24045;BME280;26257;49.442;8.422;2023-01-31T02:10:37;101467.38;;;6.34;100.00
24045;BME280;26257;49.442;8.422;2023-01-31T02:13:05;101471.03;;;6.37;100.00
24045;BME280;26257;49.442;8.422;2023-01-31T02:15:30;101465.00;;;6.40;100.00
24045;BME280;26257;49.442;8.422;2023-01-31T02:17:57;101475.47;;;6.38;100.00
24045;BME280;26257;49.442;8.422;2023-01-31T02:20:33;101451.41;;;6.48;100.00
24045;BME280;26257;49.442;8.422;2023-01-31T02:23:23;101465.34;;;6.47;100.00
24045;BME280;26257;49.442;8.422;2023-01-31T02:36:44;101454.47;;;6.38;100.00
24045;BME280;26257;49.442;8.422;2023-01-31T02:39:30;101453.44;;;6.35;100.00
24045;BME280;26257;49.442;8.422;2023-01-31T02:47:47;101466.50;;;6.33;100.00
24045;BME280;26257;49.442;8.422;2023-01-31T02:50:35;101451.19;;;6.23;100.00
24045;BME280;26257;49.442;8.422;2023-01-31T02:58:29;101454.03;;;6.08;100.00
24045;BME280;26257;49.442;8.422;2023-01-31T03:00:57;101442.09;;;6.15;100.00
24045;BME280;26257;49.442;8.422;2023-01-31T03:03:27;101445.41;;;5.92;100.00
24045;BME280;26257;49.442;8.422;2023-01-31T03:11:34;101463.31;;;5.63;100.00
24045;BME280;26257;49.442;8.422;2023-01-31T03:14:09;101463.56;;;5.50;100.00
24045;BME280;26257;49.442;8.422;2023-01-31T03:17:03;101458.75;;;5.40;100.00
24045;BME280;26257;49.442;8.422;2023-01-31T03:22:29;101462.31;;;5.23;100.00
24045;BME280;26257;49.442;8.422;2023-01-31T03:24:56;101461.75;;;5.30;100.00
24045;BME280;26257;49.442;8.422;2023-01-31T03:27:22;101466.59;;;5.21;100.00
24045;BME280;26257;49.442;8.422;2023-01-31T03:29:48;101470.19;;;5.06;100.00
24045;BME280;26257;49.442;8.422;2023-01-31T03:32:26;101475.03;;;4.98;100.00
24045;BME280;26257;49.442;8.422;2023-01-31T03:34:53;101463.31;;;4.90;100.00
24045;BME280;26257;49.442;8.422;2023-01-31T03:37:23;101472.06;;;5.08;100.00
24045;BME280;26257;49.442;8.422;2023-01-31T03:45:29;101489.25;;;4.68;100.00
24045;BME280;26257;49.442;8.422;2023-01-31T03:47:58;101488.28;;;4.66;100.00
24045;BME280;26257;49.442;8.422;2023-01-31T03:50:35;101489.63;;;4.58;100.00
24045;BME280;26257;49.442;8.422;2023-01-31T03:53:24;101494.25;;;4.63;100.00
24045;BME280;26257;49.442;8.422;2023-01-31T03:56:03;101505.91;;;4.70;100.00
24045;BME280;26257;49.442;8.422;2023-01-31T03:58:38;101509.13;;;4.64;100.00
24045;BME280;26257;49.442;8.422;2023-01-31T04:01:06;101499.19;;;4.57;100.00
24045;BME280;26257;49.442;8.422;2023-01-31T04:03:40;101498.75;;;4.66;100.00
24045;BME280;26257;49.442;8.422;2023-01-31T04:06:07;101511.75;;;4.64;100.00
24045;BME280;26257;49.442;8.422;2023-01-31T04:08:34;101510.88;;;4.64;100.00
24045;BME280;26257;49.442;8.422;2023-01-31T04:11:03;101504.75;;;4.81;100.00
24045;BME280;26257;49.442;8.422;2023-01-31T04:13:29;101514.03;;;4.74;100.00
24045;BME280;26257;49.442;8.422;2023-01-31T04:15:55;101509.66;;;4.75;100.00
24045;BME280;26257;49.442;8.422;2023-01-31T04:32:27;101512.94;;;4.03;100.00
24045;BME280;26257;49.442;8.422;2023-01-31T04:34:53;101507.34;;;4.29;100.00
24045;BME280;26257;49.442;8.422;2023-01-31T04:37:19;101506.19;;;4.41;100.00
24045;BME280;26257;49.442;8.422;2023-01-31T04:39:44;101506.84;;;4.36;100.00
24045;BME280;26257;49.442;8.422;2023-01-31T04:42:10;101498.25;;;4.39;100.00
24045;BME280;26257;49.442;8.422;2023-01-31T04:44:35;101501.94;;;4.43;100.00
24045;BME280;26257;49.442;8.422;2023-01-31T04:47:01;101506.25;;;4.42;100.00
24045;BME280;26257;49.442;8.422;2023-01-31T04:49:26;101508.91;;;4.60;100.00
24045;BME280;26257;49.442;8.422;2023-01-31T04:51:52;101495.16;;;4.64;100.00
24045;BME280;26257;49.442;8.422;2023-01-31T04:54:17;101493.94;;;4.57;100.00
24045;BME280;26257;49.442;8.422;2023-01-31T04:56:43;101489.09;;;4.65;100.00
24045;BME280;26257;49.442;8.422;2023-01-31T04:59:08;101490.41;;;4.57;100.00
24045;BME280;26257;49.442;8.422;2023-01-31T05:01:33;101492.00;;;4.53;100.00
24045;BME280;26257;49.442;8.422;2023-01-31T05:03:59;101490.81;;;4.64;100.00
24045;BME280;26257;49.442;8.422;2023-01-31T05:06:24;101484.00;;;4.68;100.00
24045;BME280;26257;49.442;8.422;2023-01-31T05:08:50;101483.63;;;4.43;100.00
24045;BME280;26257;49.442;8.422;2023-01-31T05:11:18;101490.34;;;4.38;100.00
24045;BME280;26257;49.442;8.422;2023-01-31T05:13:44;101491.81;;;4.32;100.00
24045;BME280;26257;49.442;8.422;2023-01-31T05:16:10;101479.56;;;4.15;100.00
24045;BME280;26257;49.442;8.422;2023-01-31T05:18:37;101485.63;;;4.14;100.00
24045;BME280;26257;49.442;8.422;2023-01-31T05:21:04;101479.31;;;4.27;100.00
24045;BME280;26257;49.442;8.422;2023-01-31T05:23:30;101477.69;;;4.13;100.00
24045;BME280;26257;49.442;8.422;2023-01-31T05:25:56;101488.56;;;4.04;100.00
24045;BME280;26257;49.442;8.422;2023-01-31T05:28:22;101478.94;;;4.19;100.00
24045;BME280;26257;49.442;8.422;2023-01-31T05:30:51;101476.78;;;4.28;100.00
24045;BME280;26257;49.442;8.422;2023-01-31T05:33:17;101476.00;;;4.13;100.00
24045;BME280;26257;49.442;8.422;2023-01-31T05:35:46;101483.84;;;4.13;100.00
24045;BME280;26257;49.442;8.422;2023-01-31T05:38:11;101474.34;;;3.99;100.00
24045;BME280;26257;49.442;8.422;2023-01-31T05:40:37;101487.28;;;3.80;100.00
24045;BME280;26257;49.442;8.422;2023-01-31T05:43:02;101477.97;;;3.85;100.00
24045;BME280;26257;49.442;8.422;2023-01-31T05:45:28;101491.03;;;3.85;100.00
24045;BME280;26257;49.442;8.422;2023-01-31T05:47:54;101499.69;;;3.84;100.00
24045;BME280;26257;49.442;8.422;2023-01-31T05:50:20;101490.94;;;3.84;100.00
24045;BME280;26257;49.442;8.422;2023-01-31T05:52:53;101486.00;;;3.88;100.00
24045;BME280;26257;49.442;8.422;2023-01-31T05:55:20;101499.34;;;3.94;100.00
24045;BME280;26257;49.442;8.422;2023-01-31T05:57:45;101489.25;;;3.84;100.00
24045;BME280;26257;49.442;8.422;2023-01-31T06:00:12;101486.06;;;3.90;100.00
24045;BME280;26257;49.442;8.422;2023-01-31T06:02:39;101483.09;;;3.84;100.00
24045;BME280;26257;49.442;8.422;2023-01-31T06:05:06;101479.44;;;3.96;100.00
24045;BME280;26257;49.442;8.422;2023-01-31T06:07:32;101481.41;;;4.00;100.00
24045;BME280;26257;49.442;8.422;2023-01-31T06:09:58;101486.84;;;3.89;100.00
24045;BME280;26257;49.442;8.422;2023-01-31T06:12:23;101498.06;;;3.86;100.00
24045;BME280;26257;49.442;8.422;2023-01-31T06:14:48;101502.66;;;3.90;100.00
24045;BME280;26257;49.442;8.422;2023-01-31T06:17:15;101510.50;;;3.90;100.00
24045;BME280;26257;49.442;8.422;2023-01-31T06:19:40;101504.13;;;4.01;100.00
24045;BME280;26257;49.442;8.422;2023-01-31T06:22:06;101512.13;;;3.88;100.00
24045;BME280;26257;49.442;8.422;2023-01-31T06:24:31;101508.28;;;3.98;100.00
24045;BME280;26257;49.442;8.422;2023-01-31T06:26:57;101507.19;;;3.94;100.00
24045;BME280;26257;49.442;8.422;2023-01-31T06:29:22;101511.88;;;4.00;100.00
24045;BME280;26257;49.442;8.422;2023-01-31T06:31:48;101505.09;;;3.87;100.00
24045;BME280;26257;49.442;8.422;2023-01-31T06:34:15;101499.19;;;3.91;100.00
24045;BME280;26257;49.442;8.422;2023-01-31T06:36:40;101499.34;;;4.10;100.00
24045;BME280;26257;49.442;8.422;2023-01-31T06:39:05;101497.66;;;4.11;100.00
24045;BME280;26257;49.442;8.422;2023-01-31T06:41:31;101494.31;;;3.97;100.00
24045;BME280;26257;49.442;8.422;2023-01-31T06:43:57;101501.56;;;4.03;100.00
24045;BME280;26257;49.442;8.422;2023-01-31T06:46:22;101502.06;;;3.96;100.00
24045;BME280;26257;49.442;8.422;2023-01-31T06:48:48;101501.56;;;3.87;100.00
24045;BME280;26257;49.442;8.422;2023-01-31T06:51:16;101508.50;;;3.86;100.00
24045;BME280;26257;49.442;8.422;2023-01-31T06:53:42;101502.31;;;4.00;100.00
24045;BME280;26257;49.442;8.422;2023-01-31T06:56:08;101511.34;;;4.07;100.00
24045;BME280;26257;49.442;8.422;2023-01-31T06:58:35;101518.00;;;4.00;100.00
24045;BME280;26257;49.442;8.422;2023-01-31T07:01:10;101512.78;;;4.00;100.00
24045;BME280;26257;49.442;8.422;2023-01-31T07:03:36;101527.31;;;3.79;100.00
24045;BME280;26257;49.442;8.422;2023-01-31T07:06:03;101518.41;;;3.92;100.00
24045;BME280;26257;49.442;8.422;2023-01-31T07:08:29;101525.19;;;3.72;100.00
24045;BME280;26257;49.442;8.422;2023-01-31T07:10:55;101528.28;;;3.65;100.00
24045;BME280;26257;49.442;8.422;2023-01-31T07:13:21;101523.72;;;3.77;100.00
24045;BME280;26257;49.442;8.422;2023-01-31T07:15:46;101540.53;;;3.66;100.00
24045;BME280;26257;49.442;8.422;2023-01-31T07:18:11;101531.69;;;3.64;100.00
24045;BME280;26257;49.442;8.422;2023-01-31T07:20:41;101537.41;;;3.73;100.00
24045;BME280;26257;49.442;8.422;2023-01-31T07:23:06;101529.88;;;3.63;100.00
24045;BME280;26257;49.442;8.422;2023-01-31T07:25:33;101541.81;;;3.58;100.00
24045;BME280;26257;49.442;8.422;2023-01-31T07:27:59;101553.63;;;3.82;100.00
24045;BME280;26257;49.442;8.422;2023-01-31T07:30:25;101561.69;;;3.87;100.00
24045;BME280;26257;49.442;8.422;2023-01-31T07:32:51;101555.91;;;3.92;100.00
24045;BME280;26257;49.442;8.422;2023-01-31T07:35:17;101558.34;;;4.05;100.00
24045;BME280;26257;49.442;8.422;2023-01-31T07:37:43;101555.19;;;4.11;100.00
24045;BME280;26257;49.442;8.422;2023-01-31T07:40:11;101564.09;;;4.14;100.00
24045;BME280;26257;49.442;8.422;2023-01-31T07:42:37;101563.75;;;3.92;100.00
24045;BME280;26257;49.442;8.422;2023-01-31T07:45:03;101569.06;;;4.26;100.00
24045;BME280;26257;49.442;8.422;2023-01-31T07:47:28;101567.50;;;4.13;100.00
24045;BME280;26257;49.442;8.422;2023-01-31T07:49:54;101567.19;;;4.23;100.00
24045;BME280;26257;49.442;8.422;2023-01-31T07:52:19;101558.19;;;4.34;100.00
24045;BME280;26257;49.442;8.422;2023-01-31T07:54:45;101561.13;;;4.08;100.00
24045;BME280;26257;49.442;8.422;2023-01-31T07:57:10;101568.16;;;4.25;100.00
24045;BME280;26257;49.442;8.422;2023-01-31T07:59:37;101566.59;;;4.45;100.00
24045;BME280;26257;49.442;8.422;2023-01-31T08:02:02;101568.81;;;4.38;100.00
24045;BME280;26257;49.442;8.422;2023-01-31T08:04:46;101556.88;;;4.43;100.00
24045;BME280;26257;49.442;8.422;2023-01-31T08:07:12;101552.94;;;4.51;100.00
24045;BME280;26257;49.442;8.422;2023-01-31T08:09:38;101562.22;;;4.62;100.00
24045;BME280;26257;49.442;8.422;2023-01-31T08:12:04;101568.56;;;4.67;100.00
24045;BME280;26257;49.442;8.422;2023-01-31T08:14:30;101558.94;;;4.66;100.00
24045;BME280;26257;49.442;8.422;2023-01-31T08:16:57;101554.47;;;4.81;100.00
24045;BME280;26257;49.442;8.422;2023-01-31T08:19:22;101554.44;;;5.15;100.00
24045;BME280;26257;49.442;8.422;2023-01-31T08:21:48;101556.63;;;5.23;100.00
24045;BME280;26257;49.442;8.422;2023-01-31T08:24:13;101567.47;;;5.31;100.00
24045;BME280;26257;49.442;8.422;2023-01-31T08:26:41;101559.63;;;5.68;100.00
24045;BME280;26257;49.442;8.422;2023-01-31T08:29:06;101546.56;;;5.87;100.00
24045;BME280;26257;49.442;8.422;2023-01-31T08:31:32;101545.84;;;6.08;100.00
24045;BME280;26257;49.442;8.422;2023-01-31T08:33:58;101551.53;;;6.17;100.00
24045;BME280;26257;49.442;8.422;2023-01-31T08:36:28;101537.94;;;6.47;100.00
24045;BME280;26257;49.442;8.422;2023-01-31T08:38:57;101525.63;;;6.25;100.00
24045;BME280;26257;49.442;8.422;2023-01-31T08:41:24;101526.63;;;6.29;100.00
24045;BME280;26257;49.442;8.422;2023-01-31T08:43:50;101505.44;;;6.43;100.00
24045;BME280;26257;49.442;8.422;2023-01-31T08:46:17;101533.75;;;6.31;100.00
24045;BME280;26257;49.442;8.422;2023-01-31T08:48:43;101530.72;;;6.22;100.00
24045;BME280;26257;49.442;8.422;2023-01-31T08:51:11;101531.91;;;6.49;100.00
24045;BME280;26257;49.442;8.422;2023-01-31T08:53:41;101547.66;;;6.49;100.00
24045;BME280;26257;49.442;8.422;2023-01-31T08:56:08;101538.22;;;6.34;100.00
24045;BME280;26257;49.442;8.422;2023-01-31T08:58:36;101534.72;;;6.33;100.00
24045;BME280;26257;49.442;8.422;2023-01-31T09:01:05;101526.28;;;6.40;100.00
24045;BME280;26257;49.442;8.422;2023-01-31T09:03:31;101535.41;;;6.48;100.00
24045;BME280;26257;49.442;8.422;2023-01-31T09:06:01;101539.59;;;6.45;100.00
24045;BME280;26257;49.442;8.422;2023-01-31T09:08:27;101536.22;;;6.47;100.00
24045;BME280;26257;49.442;8.422;2023-01-31T09:10:54;101547.00;;;6.34;100.00
24045;BME280;26257;49.442;8.422;2023-01-31T09:13:23;101551.81;;;6.44;100.00
24045;BME280;26257;49.442;8.422;2023-01-31T09:16:08;101564.78;;;6.60;100.00
24045;BME280;26257;49.442;8.422;2023-01-31T09:18:36;101551.97;;;6.47;100.00
24045;BME280;26257;49.442;8.422;2023-01-31T09:21:03;101545.34;;;6.36;100.00
24045;BME280;26257;49.442;8.422;2023-01-31T09:23:29;101538.31;;;6.35;100.00
24045;BME280;26257;49.442;8.422;2023-01-31T09:25:54;101552.38;;;6.37;100.00
24045;BME280;26257;49.442;8.422;2023-01-31T09:28:21;101547.44;;;6.24;100.00
24045;BME280;26257;49.442;8.422;2023-01-31T09:30:47;101552.25;;;6.34;100.00
24045;BME280;26257;49.442;8.422;2023-01-31T09:33:15;101543.53;;;6.54;100.00
24045;BME280;26257;49.442;8.422;2023-01-31T09:35:40;101551.00;;;6.45;100.00
24045;BME280;26257;49.442;8.422;2023-01-31T09:38:06;101537.88;;;6.26;100.00
24045;BME280;26257;49.442;8.422;2023-01-31T09:40:34;101526.16;;;6.37;100.00
24045;BME280;26257;49.442;8.422;2023-01-31T09:43:02;101531.25;;;6.34;100.00
24045;BME280;26257;49.442;8.422;2023-01-31T09:45:32;101524.00;;;6.48;100.00
24045;BME280;26257;49.442;8.422;2023-01-31T09:48:00;101528.09;;;6.22;100.00
24045;BME280;26257;49.442;8.422;2023-01-31T09:50:31;101523.19;;;6.30;100.00
24045;BME280;26257;49.442;8.422;2023-01-31T09:52:57;101521.94;;;6.41;100.00
24045;BME280;26257;49.442;8.422;2023-01-31T09:55:41;101529.59;;;6.36;100.00
24045;BME280;26257;49.442;8.422;2023-01-31T10:03:43;101525.16;;;6.54;100.00
24045;BME280;26257;49.442;8.422;2023-01-31T10:06:23;101528.56;;;6.72;100.00
24045;BME280;26257;49.442;8.422;2023-01-31T10:09:04;101517.91;;;7.11;100.00
24045;BME280;26257;49.442;8.422;2023-01-31T10:11:39;101519.34;;;7.25;100.00
24045;BME280;26257;49.442;8.422;2023-01-31T10:14:19;101520.84;;;7.61;100.00
24045;BME280;26257;49.442;8.422;2023-01-31T10:17:15;101519.81;;;7.58;100.00
24045;BME280;26257;49.442;8.422;2023-01-31T10:38:31;101495.91;;;7.97;100.00
24045;BME280;26257;49.442;8.422;2023-01-31T10:41:05;101489.94;;;7.56;100.00
24045;BME280;26257;49.442;8.422;2023-01-31T10:43:59;101482.34;;;7.41;100.00
24045;BME280;26257;49.442;8.422;2023-01-31T10:46:27;101476.84;;;7.57;100.00
24045;BME280;26257;49.442;8.422;2023-01-31T10:48:53;101478.81;;;7.40;100.00
24045;BME280;26257;49.442;8.422;2023-01-31T10:56:43;101483.03;;;7.81;100.00
24045;BME280;26257;49.442;8.422;2023-01-31T10:59:29;101489.19;;;7.82;100.00
24045;BME280;26257;49.442;8.422;2023-01-31T11:01:55;101489.31;;;7.63;100.00
24045;BME280;26257;49.442;8.422;2023-01-31T11:04:24;101486.16;;;7.71;100.00
24045;BME280;26257;49.442;8.422;2023-01-31T11:06:53;101494.41;;;7.58;100.00
24045;BME280;26257;49.442;8.422;2023-01-31T11:09:20;101489.84;;;7.76;100.00
24045;BME280;26257;49.442;8.422;2023-01-31T11:11:58;101477.41;;;7.72;100.00
24045;BME280;26257;49.442;8.422;2023-01-31T11:14:24;101481.84;;;7.73;100.00
24045;BME280;26257;49.442;8.422;2023-01-31T11:16:56;101464.22;;;7.94;100.00
24045;BME280;26257;49.442;8.422;2023-01-31T11:22:20;101451.09;;;7.72;100.00
24045;BME280;26257;49.442;8.422;2023-01-31T11:24:47;101444.56;;;7.85;100.00
24045;BME280;26257;49.442;8.422;2023-01-31T11:27:24;101433.09;;;7.83;100.00
24045;BME280;26257;49.442;8.422;2023-01-31T11:29:51;101423.69;;;7.89;100.00
24045;BME280;26257;49.442;8.422;2023-01-31T11:32:27;101411.72;;;7.50;100.00
24045;BME280;26257;49.442;8.422;2023-01-31T11:40:55;101417.19;;;8.03;100.00
24045;BME280;26257;49.442;8.422;2023-01-31T11:43:24;101405.06;;;8.08;100.00
24045;BME280;26257;49.442;8.422;2023-01-31T11:45:59;101405.19;;;8.12;100.00
24045;BME280;26257;49.442;8.422;2023-01-31T11:48:35;101386.03;;;7.67;100.00
24045;BME280;26257;49.442;8.422;2023-01-31T11:51:02;101381.78;;;7.70;100.00
24045;BME280;26257;49.442;8.422;2023-01-31T11:53:49;101388.56;;;7.64;100.00
24045;BME280;26257;49.442;8.422;2023-01-31T11:56:27;101372.19;;;7.72;100.00
24045;BME280;26257;49.442;8.422;2023-01-31T11:59:01;101353.31;;;7.35;100.00
24045;BME280;26257;49.442;8.422;2023-01-31T12:01:28;101342.97;;;7.39;100.00
24045;BME280;26257;49.442;8.422;2023-01-31T12:04:02;101345.47;;;6.91;100.00
24045;BME280;26257;49.442;8.422;2023-01-31T12:06:33;101344.63;;;6.92;100.00
24045;BME280;26257;49.442;8.422;2023-01-31T12:09:21;101346.75;;;7.02;100.00
24045;BME280;26257;49.442;8.422;2023-01-31T12:11:55;101353.44;;;6.94;100.00
24045;BME280;26257;49.442;8.422;2023-01-31T12:14:22;101339.00;;;7.05;100.00
24045;BME280;26257;49.442;8.422;2023-01-31T12:16:53;101322.28;;;7.03;100.00
24045;BME280;26257;49.442;8.422;2023-01-31T12:19:39;101321.47;;;6.81;100.00
24045;BME280;26257;49.442;8.422;2023-01-31T12:22:27;101312.28;;;6.70;100.00
24045;BME280;26257;49.442;8.422;2023-01-31T12:27:50;101317.16;;;7.06;100.00
24045;BME280;26257;49.442;8.422;2023-01-31T12:39:01;101322.16;;;7.00;100.00
24045;BME280;26257;49.442;8.422;2023-01-31T12:41:31;101311.03;;;7.29;100.00
24045;BME280;26257;49.442;8.422;2023-01-31T12:49:32;101308.94;;;7.44;100.00
24045;BME280;26257;49.442;8.422;2023-01-31T12:55:02;101312.97;;;7.58;100.00
24045;BME280;26257;49.442;8.422;2023-01-31T13:00:45;101317.94;;;7.74;100.00
24045;BME280;26257;49.442;8.422;2023-01-31T13:03:23;101315.47;;;7.79;100.00
24045;BME280;26257;49.442;8.422;2023-01-31T13:05:58;101319.06;;;7.82;100.00
24045;BME280;26257;49.442;8.422;2023-01-31T13:08:30;101312.47;;;7.68;100.00
24045;BME280;26257;49.442;8.422;2023-01-31T13:11:18;101310.13;;;7.28;100.00
24045;BME280;26257;49.442;8.422;2023-01-31T13:13:47;101284.06;;;7.11;100.00
24045;BME280;26257;49.442;8.422;2023-01-31T13:18:50;101264.25;;;6.97;100.00
24045;BME280;26257;49.442;8.422;2023-01-31T13:21:20;101249.69;;;7.05;100.00
24045;BME280;26257;49.442;8.422;2023-01-31T13:23:58;101248.06;;;6.84;100.00
24045;BME280;26257;49.442;8.422;2023-01-31T13:26:35;101246.94;;;7.25;100.00
24045;BME280;26257;49.442;8.422;2023-01-31T13:29:08;101259.56;;;7.35;100.00
24045;BME280;26257;49.442;8.422;2023-01-31T13:31:47;101232.47;;;7.38;100.00
24045;BME280;26257;49.442;8.422;2023-01-31T13:34:25;101229.28;;;6.98;100.00
24045;BME280;26257;49.442;8.422;2023-01-31T13:37:03;101234.19;;;7.12;100.00
24045;BME280;26257;49.442;8.422;2023-01-31T13:39:35;101231.94;;;6.99;100.00
24045;BME280;26257;49.442;8.422;2023-01-31T13:42:03;101227.47;;;6.97;100.00
24045;BME280;26257;49.442;8.422;2023-01-31T13:44:29;101220.78;;;7.05;100.00
24045;BME280;26257;49.442;8.422;2023-01-31T13:50:02;101235.94;;;7.61;100.00
24045;BME280;26257;49.442;8.422;2023-01-31T13:52:35;101248.84;;;7.29;100.00
24045;BME280;26257;49.442;8.422;2023-01-31T13:55:13;101255.19;;;7.36;100.00
24045;BME280;26257;49.442;8.422;2023-01-31T13:57:42;101252.19;;;7.25;100.00
24045;BME280;26257;49.442;8.422;2023-01-31T14:03:07;101246.91;;;7.49;100.00
24045;BME280;26257;49.442;8.422;2023-01-31T14:18:56;101241.00;;;7.31;100.00
24045;BME280;26257;49.442;8.422;2023-01-31T14:23:53;101220.22;;;6.90;100.00
24045;BME280;26257;49.442;8.422;2023-01-31T14:26:50;101225.47;;;6.90;100.00
24045;BME280;26257;49.442;8.422;2023-01-31T14:29:26;101223.34;;;6.79;100.00
24045;BME280;26257;49.442;8.422;2023-01-31T14:31:54;101211.59;;;6.94;100.00
24045;BME280;26257;49.442;8.422;2023-01-31T14:34:26;101218.88;;;7.24;100.00
24045;BME280;26257;49.442;8.422;2023-01-31T14:40:12;101225.22;;;7.31;100.00
24045;BME280;26257;49.442;8.422;2023-01-31T14:48:24;101232.03;;;7.50;100.00
24045;BME280;26257;49.442;8.422;2023-01-31T14:58:58;101239.47;;;7.61;100.00
24045;BME280;26257;49.442;8.422;2023-01-31T15:01:32;101244.25;;;7.47;100.00
24045;BME280;26257;49.442;8.422;2023-01-31T15:03:59;101241.88;;;7.55;100.00
24045;BME280;26257;49.442;8.422;2023-01-31T15:06:31;101243.97;;;7.65;100.00
24045;BME280;26257;49.442;8.422;2023-01-31T15:11:48;101251.19;;;7.45;100.00
24045;BME280;26257;49.442;8.422;2023-01-31T15:19:41;101231.25;;;7.52;100.00
24045;BME280;26257;49.442;8.422;2023-01-31T15:22:09;101231.34;;;7.55;100.00
24045;BME280;26257;49.442;8.422;2023-01-31T15:24:38;101228.09;;;7.62;100.00
24045;BME280;26257;49.442;8.422;2023-01-31T15:35:34;101239.38;;;7.60;100.00
24045;BME280;26257;49.442;8.422;2023-01-31T15:43:51;101238.81;;;7.68;100.00
24045;BME280;26257;49.442;8.422;2023-01-31T15:46:31;101239.75;;;7.70;100.00
24045;BME280;26257;49.442;8.422;2023-01-31T15:48:59;101242.09;;;7.61;100.00
24045;BME280;26257;49.442;8.422;2023-01-31T15:51:26;101239.66;;;7.92;100.00
24045;BME280;26257;49.442;8.422;2023-01-31T15:54:05;101237.75;;;7.88;100.00
24045;BME280;26257;49.442;8.422;2023-01-31T15:56:35;101246.19;;;7.78;100.00
24045;BME280;26257;49.442;8.422;2023-01-31T15:59:09;101239.00;;;7.99;100.00
24045;BME280;26257;49.442;8.422;2023-01-31T16:01:35;101240.44;;;7.90;100.00
24045;BME280;26257;49.442;8.422;2023-01-31T16:04:00;101242.91;;;7.85;100.00
24045;BME280;26257;49.442;8.422;2023-01-31T16:06:32;101253.81;;;7.71;100.00